Atwood, Colorado
Current Conditions -  °F | °C
As of 3:35 PM on Monday 20 Oct 2014 (Local Time) from KSTK Reporting Station
Clear Clear  
Wind Chill: 28°   Ceiling: Unl
Heat Index: 28°   Visibility: 10mi
Dew Point:   Wind: 13mph
Humidity: 19%   Direction: 200°SSW
Pressure: 30.03"   Gusts: 16mph
Location:  40.55°N, 103.27°W
Report Text: KSTK 202135Z AUTO 20011G14KT 10SM CLR 28/02 A3003 RMK AO2
Loading
Personal Weather Stations






























Interactive Weather Map
Tropical Storm Tracking
New forecast layout! Learn more

10-Day Weather Forecast

Advertisements
Track Severe Weather on mobile